Time;durP1;ratioP1;P1;durP2;ratioP2;P2;SDS_P1;SDS_P2;PMS_P1;PMS_P2;Temp;Humidity;BMP_temperature;BMP_pressure;BME280_temperature;BME280_humidity;BME280_pressure;Samples;Min_cycle;Max_cycle;Signal;HPM_P1;HPM_P2
2022/12/05 00:01:26;;;;;;;;;;;4.40;95.40;;;;;;5067881;28;19912;-71
2022/12/05 00:03:52;;;;;;;;;;;4.30;95.30;;;;;;5048886;28;19912;-71
2022/12/05 00:06:18;;;;;;;;;;;4.30;95.30;;;;;;5048499;28;19913;-71
2022/12/05 00:08:44;;;;;;;;;;;4.30;95.30;;;;;;5048747;28;20019;-71
2022/12/05 00:11:12;;;;;;;;;;;4.30;95.30;;;;;;5068673;28;19970;-71
2022/12/05 00:13:39;;;;;;;;;;;4.30;95.30;;;;;;5067264;28;19916;-71
2022/12/05 00:16:13;;;;;;;;;;;4.30;95.30;;;;;;5067212;28;19920;-71
2022/12/05 00:18:39;;;;;;;;;;;4.30;95.30;;;;;;5068772;28;19969;-71
2022/12/05 00:21:05;;;;;;;;;;;4.30;95.40;;;;;;5068473;28;20327;-71
2022/12/05 00:23:30;;;;;;;;;;;4.30;95.40;;;;;;5072621;28;20476;-71
2022/12/05 00:26:00;;;;;;;;;;;4.30;95.30;;;;;;5086885;28;20010;-71
2022/12/05 00:28:25;;;;;;;;;;;4.30;95.40;;;;;;5069148;28;19974;-71
2022/12/05 00:30:50;;;;;;;;;;;4.30;95.30;;;;;;5067346;28;19916;-71
2022/12/05 00:33:16;;;;;;;;;;;4.40;95.40;;;;;;5052043;28;20379;-71
2022/12/05 00:35:41;;;;;;;;;;;4.30;95.40;;;;;;5048354;28;19909;-71
2022/12/05 00:38:07;;;;;;;;;;;4.30;95.50;;;;;;5048173;28;20425;-71
2022/12/05 00:40:34;;;;;;;;;;;4.30;95.40;;;;;;5048056;28;19920;-71
2022/12/05 00:43:00;;;;;;;;;;;4.30;95.30;;;;;;5051528;28;19909;-71
2022/12/05 00:45:25;;;;;;;;;;;4.30;95.40;;;;;;5067927;28;19912;-71
2022/12/05 00:47:51;;;;;;;;;;;4.30;95.40;;;;;;5066206;28;19914;-71
2022/12/05 00:50:16;;;;;;;;;;;4.40;95.40;;;;;;5066445;28;19962;-71
2022/12/05 00:52:42;;;;;;;;;;;4.30;95.40;;;;;;5068125;28;19991;-70
2022/12/05 00:55:07;;;;;;;;;;;4.30;95.40;;;;;;5067975;28;19999;-71
2022/12/05 00:57:33;;;;;;;;;;;4.30;95.40;;;;;;5060721;28;20328;-71
2022/12/05 00:59:58;;;;;;;;;;;4.40;95.40;;;;;;5072918;28;19912;-71
2022/12/05 01:02:24;;;;;;;;;;;4.30;95.40;;;;;;5069729;28;20579;-71
2022/12/05 01:04:49;;;;;;;;;;;4.30;95.40;;;;;;5047703;28;20004;-71
2022/12/05 01:07:15;;;;;;;;;;;4.30;95.40;;;;;;5047654;28;19913;-71
2022/12/05 01:09:40;;;;;;;;;;;4.30;95.40;;;;;;5047670;28;19908;-71
2022/12/05 01:12:06;;;;;;;;;;;4.30;95.40;;;;;;5047510;28;19932;-71
2022/12/05 01:14:31;;;;;;;;;;;4.30;95.40;;;;;;5047865;28;20390;-71
2022/12/05 01:16:57;;;;;;;;;;;4.30;95.40;;;;;;5060680;28;19916;-71
2022/12/05 01:19:24;;;;;;;;;;;4.30;95.40;;;;;;5066254;28;19971;-71
2022/12/05 01:21:49;;;;;;;;;;;4.30;95.40;;;;;;5067531;28;19909;-71
2022/12/05 01:24:15;;;;;;;;;;;4.40;95.40;;;;;;5067129;28;19986;-71
2022/12/05 01:26:41;;;;;;;;;;;4.30;95.40;;;;;;5067132;28;20388;-71
2022/12/05 01:29:07;;;;;;;;;;;4.30;95.40;;;;;;5086095;28;20014;-71
2022/12/05 01:31:34;;;;;;;;;;;4.30;95.40;;;;;;5069021;28;20408;-71
2022/12/05 01:34:01;;;;;;;;;;;4.30;95.40;;;;;;5066288;28;19912;-71
2022/12/05 01:36:27;;;;;;;;;;;4.30;95.40;;;;;;5067318;28;20386;-71
2022/12/05 01:38:53;;;;;;;;;;;4.40;95.40;;;;;;5067116;28;20003;-71
2022/12/05 01:41:20;;;;;;;;;;;4.40;95.40;;;;;;5068662;28;19999;-71
2022/12/05 01:43:52;;;;;;;;;;;4.30;95.40;;;;;;5087102;28;19916;-71
2022/12/05 01:46:17;;;;;;;;;;;4.40;95.40;;;;;;5078857;28;20405;-71
2022/12/05 01:48:43;;;;;;;;;;;4.40;95.40;;;;;;5067357;28;19915;-71
2022/12/05 01:51:09;;;;;;;;;;;4.30;95.40;;;;;;5067148;28;19912;-71
2022/12/05 01:53:37;;;;;;;;;;;4.30;95.40;;;;;;5067365;28;19912;-71
2022/12/05 01:56:02;;;;;;;;;;;4.40;95.40;;;;;;5067443;28;19990;-71
2022/12/05 01:58:30;;;;;;;;;;;4.40;95.40;;;;;;5068478;28;19920;-71
2022/12/05 02:00:55;;;;;;;;;;;4.40;95.40;;;;;;5066729;28;19920;-71
2022/12/05 02:03:21;;;;;;;;;;;4.30;95.40;;;;;;5049999;28;19962;-71
2022/12/05 02:05:48;;;;;;;;;;;4.40;95.50;;;;;;5047196;28;19908;-71
2022/12/05 02:08:14;;;;;;;;;;;4.40;95.40;;;;;;5046933;28;19913;-71
2022/12/05 02:10:48;;;;;;;;;;;4.40;95.50;;;;;;5046621;28;19974;-71
2022/12/05 02:13:13;;;;;;;;;;;4.40;95.50;;;;;;5046900;28;19924;-71
2022/12/05 02:15:49;;;;;;;;;;;4.40;95.50;;;;;;5067174;28;19916;-71
2022/12/05 02:18:32;;;;;;;;;;;4.30;95.40;;;;;;5090723;28;20001;-71
2022/12/05 02:21:21;;;;;;;;;;;4.40;95.50;;;;;;5090617;28;19912;-71
2022/12/05 02:24:01;;;;;;;;;;;4.40;95.50;;;;;;5072373;28;19977;-70
2022/12/05 02:26:36;;;;;;;;;;;4.30;95.50;;;;;;5070769;28;19920;-71
2022/12/05 02:29:25;;;;;;;;;;;4.30;95.40;;;;;;5070873;28;20007;-71
2022/12/05 02:32:04;;;;;;;;;;;4.40;95.50;;;;;;5057940;28;19912;-71
2022/12/05 02:34:29;;;;;;;;;;;4.30;95.40;;;;;;5050893;28;19979;-71
2022/12/05 02:36:58;;;;;;;;;;;4.40;95.50;;;;;;5064019;28;19909;-71
2022/12/05 02:39:25;;;;;;;;;;;4.40;95.50;;;;;;5070301;28;20145;-71
2022/12/05 02:41:54;;;;;;;;;;;4.30;95.50;;;;;;5070831;28;19915;-71
2022/12/05 02:44:23;;;;;;;;;;;4.30;95.50;;;;;;5070666;28;19995;-71
2022/12/05 02:46:51;;;;;;;;;;;4.40;95.50;;;;;;5070671;28;19930;-71
2022/12/05 02:49:18;;;;;;;;;;;4.30;95.50;;;;;;5071539;28;19928;-71
2022/12/05 02:51:45;;;;;;;;;;;4.40;95.50;;;;;;5070271;28;20667;-71
2022/12/05 02:54:13;;;;;;;;;;;4.30;95.50;;;;;;5070624;28;20004;-71
2022/12/05 02:56:39;;;;;;;;;;;4.40;95.50;;;;;;5069604;28;19969;-71
2022/12/05 02:59:04;;;;;;;;;;;4.40;95.50;;;;;;5070275;28;20395;-71
2022/12/05 03:01:31;;;;;;;;;;;4.30;95.50;;;;;;5068060;28;19913;-71
2022/12/05 03:03:58;;;;;;;;;;;4.40;95.50;;;;;;5050303;28;19917;-71
2022/12/05 03:06:25;;;;;;;;;;;4.40;95.50;;;;;;5080247;28;19947;-71
2022/12/05 03:09:14;;;;;;;;;;;4.40;95.50;;;;;;5077318;28;19956;-71
2022/12/05 03:11:44;;;;;;;;;;;4.40;95.50;;;;;;5071847;28;19916;-71
2022/12/05 03:14:12;;;;;;;;;;;4.40;95.50;;;;;;5069305;28;19912;-71
2022/12/05 03:16:42;;;;;;;;;;;4.40;95.50;;;;;;5069578;28;19920;-71
2022/12/05 03:19:10;;;;;;;;;;;4.40;95.50;;;;;;5069703;28;20419;-71
2022/12/05 03:21:39;;;;;;;;;;;4.40;95.50;;;;;;5071302;28;19920;-71
2022/12/05 03:24:06;;;;;;;;;;;4.40;95.80;;;;;;5090290;28;20281;-71
2022/12/05 03:26:50;;;;;;;;;;;4.30;95.50;;;;;;5067272;28;19978;-71
2022/12/05 03:29:23;;;;;;;;;;;4.40;95.60;;;;;;5069404;28;19936;-71
2022/12/05 03:31:53;;;;;;;;;;;4.40;95.50;;;;;;5054039;28;19930;-71
2022/12/05 03:34:39;;;;;;;;;;;4.30;95.50;;;;;;5070017;28;20361;-71
2022/12/05 03:37:09;;;;;;;;;;;4.40;95.60;;;;;;5077393;28;19912;-71
2022/12/05 03:39:37;;;;;;;;;;;4.40;95.50;;;;;;5067890;28;19951;-71
2022/12/05 03:42:14;;;;;;;;;;;4.40;95.60;;;;;;5069007;28;20438;-71
2022/12/05 03:44:53;;;;;;;;;;;4.40;95.60;;;;;;5069121;28;19948;-71
2022/12/05 03:47:24;;;;;;;;;;;4.40;95.60;;;;;;5069213;28;19917;-70
2022/12/05 03:49:51;;;;;;;;;;;4.40;95.60;;;;;;5069021;28;19961;-70
2022/12/05 03:52:19;;;;;;;;;;;4.40;95.60;;;;;;5069151;28;19924;-70
2022/12/05 03:55:05;;;;;;;;;;;4.40;95.60;;;;;;5069929;28;20513;-70
2022/12/05 03:57:34;;;;;;;;;;;4.40;95.60;;;;;;5069033;28;19993;-70
2022/12/05 04:00:11;;;;;;;;;;;4.40;95.60;;;;;;5068765;28;19909;-70
2022/12/05 04:02:44;;;;;;;;;;;4.30;95.60;;;;;;5058293;28;19913;-70
2022/12/05 04:05:29;;;;;;;;;;;4.40;95.60;;;;;;5049050;28;19935;-70
2022/12/05 04:08:02;;;;;;;;;;;4.40;95.60;;;;;;5046597;28;20415;-70
2022/12/05 04:10:29;;;;;;;;;;;4.40;95.60;;;;;;5048513;28;19924;-70
2022/12/05 04:12:57;;;;;;;;;;;4.30;95.60;;;;;;5063804;28;19916;-70
2022/12/05 04:15:25;;;;;;;;;;;4.30;95.60;;;;;;5065551;28;20699;-70
2022/12/05 04:17:58;;;;;;;;;;;4.40;95.60;;;;;;5068066;28;19913;-70
2022/12/05 04:23:15;;;;;;;;;;;4.30;95.60;;;;;;5068780;28;19922;-71
2022/12/05 04:25:54;;;;;;;;;;;4.40;95.70;;;;;;5068513;28;19919;-70
2022/12/05 04:28:26;;;;;;;;;;;4.40;95.60;;;;;;5055176;28;19920;-70
2022/12/05 04:31:03;;;;;;;;;;;4.40;95.70;;;;;;5083345;28;19923;-70
2022/12/05 04:33:49;;;;;;;;;;;4.30;95.60;;;;;;5050738;28;19912;-70
2022/12/05 04:36:29;;;;;;;;;;;4.30;95.60;;;;;;5048398;28;19916;-70
2022/12/05 04:39:04;;;;;;;;;;;4.40;95.70;;;;;;5047404;28;20004;-70
2022/12/05 04:41:35;;;;;;;;;;;4.40;95.70;;;;;;5051074;28;19916;-70
2022/12/05 04:44:02;;;;;;;;;;;4.40;95.70;;;;;;5067309;28;19912;-70
2022/12/05 04:46:28;;;;;;;;;;;4.40;95.70;;;;;;5068110;28;19962;-70
2022/12/05 04:48:59;;;;;;;;;;;4.30;95.70;;;;;;5067134;28;19912;-70
2022/12/05 04:51:26;;;;;;;;;;;4.40;95.70;;;;;;5066931;28;19916;-70
2022/12/05 04:53:56;;;;;;;;;;;4.40;95.70;;;;;;5067142;28;19940;-70
2022/12/05 04:56:23;;;;;;;;;;;4.40;95.70;;;;;;5067015;28;19909;-69
2022/12/05 04:58:48;;;;;;;;;;;4.40;95.70;;;;;;5067581;28;19923;-70
2022/12/05 05:01:19;;;;;;;;;;;4.40;95.70;;;;;;5062674;28;19908;-70
2022/12/05 05:04:08;;;;;;;;;;;4.40;95.70;;;;;;5070458;28;19917;-69
2022/12/05 05:06:36;;;;;;;;;;;4.40;95.70;;;;;;5064508;28;19908;-70
2022/12/05 05:09:01;;;;;;;;;;;4.30;95.70;;;;;;5066473;28;19909;-69
2022/12/05 05:11:28;;;;;;;;;;;4.40;95.80;;;;;;5067435;28;20371;-69
2022/12/05 05:13:54;;;;;;;;;;;4.30;95.70;;;;;;5067685;28;19908;-70
2022/12/05 05:16:21;;;;;;;;;;;4.30;95.70;;;;;;5068002;28;20058;-70
2022/12/05 05:18:48;;;;;;;;;;;4.30;95.70;;;;;;5071665;28;19923;-70
2022/12/05 05:21:42;;;;;;;;;;;4.40;95.80;;;;;;5081701;28;19912;-70
2022/12/05 05:24:09;;;;;;;;;;;4.40;95.80;;;;;;5071005;28;19941;-70
2022/12/05 05:26:35;;;;;;;;;;;4.40;95.80;;;;;;5067182;28;19946;-70
2022/12/05 05:29:01;;;;;;;;;;;4.40;95.80;;;;;;5065966;28;19916;-70
2022/12/05 05:31:27;;;;;;;;;;;4.30;95.80;;;;;;5065695;28;19917;-70
2022/12/05 05:33:53;;;;;;;;;;;4.30;95.80;;;;;;5047329;28;19924;-70
2022/12/05 05:36:19;;;;;;;;;;;4.40;95.80;;;;;;5059406;28;19947;-69
2022/12/05 05:38:47;;;;;;;;;;;4.30;95.80;;;;;;5066852;28;19924;-69
2022/12/05 05:41:13;;;;;;;;;;;4.40;95.80;;;;;;5066753;28;20046;-69
2022/12/05 05:43:39;;;;;;;;;;;4.30;95.80;;;;;;5066618;28;19909;-70
2022/12/05 05:46:05;;;;;;;;;;;4.40;95.80;;;;;;5066697;28;20266;-70
2022/12/05 05:48:30;;;;;;;;;;;4.40;95.80;;;;;;5066853;28;19975;-69
2022/12/05 05:50:59;;;;;;;;;;;4.30;95.80;;;;;;5066840;28;20463;-70
2022/12/05 05:53:25;;;;;;;;;;;4.30;95.80;;;;;;5068162;28;19924;-70
2022/12/05 05:55:51;;;;;;;;;;;4.40;95.80;;;;;;5067088;28;19913;-69
2022/12/05 05:58:16;;;;;;;;;;;4.30;95.80;;;;;;5066963;28;20009;-69
2022/12/05 06:00:41;;;;;;;;;;;4.30;95.80;;;;;;5066700;28;20726;-69
2022/12/05 06:03:07;;;;;;;;;;;4.40;95.80;;;;;;5053913;28;20017;-69
2022/12/05 06:05:32;;;;;;;;;;;4.30;95.80;;;;;;5046965;28;19920;-70
2022/12/05 06:07:58;;;;;;;;;;;4.30;95.80;;;;;;5046836;28;19912;-70
2022/12/05 06:10:23;;;;;;;;;;;4.30;95.80;;;;;;5064346;28;20057;-69
2022/12/05 06:12:49;;;;;;;;;;;4.30;95.80;;;;;;5066629;28;19917;-69
2022/12/05 06:15:14;;;;;;;;;;;4.30;95.80;;;;;;5066904;28;19909;-69
2022/12/05 06:17:40;;;;;;;;;;;4.30;95.80;;;;;;5066482;28;19913;-69
2022/12/05 06:20:07;;;;;;;;;;;4.30;95.80;;;;;;5066186;28;19958;-69
2022/12/05 06:22:32;;;;;;;;;;;4.30;95.80;;;;;;5066685;28;19996;-69
2022/12/05 06:24:58;;;;;;;;;;;4.30;95.90;;;;;;5066769;28;20388;-69
2022/12/05 06:27:24;;;;;;;;;;;4.30;95.90;;;;;;5066079;28;19912;-69
2022/12/05 06:29:49;;;;;;;;;;;4.30;95.90;;;;;;5065927;28;19909;-69
2022/12/05 06:32:15;;;;;;;;;;;4.30;95.90;;;;;;5056719;28;20267;-69
2022/12/05 06:34:40;;;;;;;;;;;4.30;95.90;;;;;;5045991;28;19958;-69
2022/12/05 06:37:06;;;;;;;;;;;4.30;95.90;;;;;;5045539;28;19939;-69
2022/12/05 06:39:32;;;;;;;;;;;4.30;95.90;;;;;;5044825;28;19913;-69
2022/12/05 06:41:57;;;;;;;;;;;4.30;95.90;;;;;;5048958;28;19913;-70
2022/12/05 06:44:25;;;;;;;;;;;4.30;95.90;;;;;;5066804;28;19913;-69
2022/12/05 06:46:54;;;;;;;;;;;4.30;95.90;;;;;;5066706;28;19920;-69
2022/12/05 06:49:20;;;;;;;;;;;4.30;95.90;;;;;;5066696;28;20377;-70
2022/12/05 06:51:45;;;;;;;;;;;4.30;95.90;;;;;;5065270;28;19915;-69
2022/12/05 06:54:12;;;;;;;;;;;4.30;95.90;;;;;;5066491;28;19923;-69
2022/12/05 06:56:37;;;;;;;;;;;4.30;95.90;;;;;;5066522;28;19912;-70
2022/12/05 06:59:02;;;;;;;;;;;4.30;95.90;;;;;;5065753;28;20368;-69
2022/12/05 07:01:41;;;;;;;;;;;4.30;95.90;;;;;;5064598;28;20042;-69
2022/12/05 07:04:06;;;;;;;;;;;4.30;95.90;;;;;;5049365;28;20140;-69
2022/12/05 07:06:33;;;;;;;;;;;4.30;95.90;;;;;;5050157;28;19913;-69
2022/12/05 07:08:58;;;;;;;;;;;4.30;95.90;;;;;;5049842;28;19913;-69
2022/12/05 07:11:24;;;;;;;;;;;4.30;95.90;;;;;;5049512;28;19927;-69
2022/12/05 07:13:49;;;;;;;;;;;4.30;95.90;;;;;;5049592;28;19917;-69
2022/12/05 07:16:15;;;;;;;;;;;4.30;95.90;;;;;;5062936;28;20483;-69
2022/12/05 07:18:40;;;;;;;;;;;4.30;95.90;;;;;;5069719;28;19970;-69
2022/12/05 07:21:07;;;;;;;;;;;4.30;96.00;;;;;;5069709;28;19966;-69
2022/12/05 07:23:32;;;;;;;;;;;4.30;95.90;;;;;;5069885;28;19995;-69
2022/12/05 07:25:58;;;;;;;;;;;4.30;95.90;;;;;;5069731;28;20038;-69
2022/12/05 07:28:24;;;;;;;;;;;4.30;95.90;;;;;;5068377;28;19940;-69
2022/12/05 07:31:02;;;;;;;;;;;4.30;96.00;;;;;;5069385;28;20519;-69
2022/12/05 07:33:28;;;;;;;;;;;4.30;95.90;;;;;;5087298;28;19916;-69
2022/12/05 07:35:57;;;;;;;;;;;4.30;96.00;;;;;;5089845;28;19935;-69
2022/12/05 07:38:23;;;;;;;;;;;4.30;96.00;;;;;;5067175;28;20191;-69
2022/12/05 07:40:48;;;;;;;;;;;4.30;96.00;;;;;;5069038;28;19912;-69
2022/12/05 07:43:14;;;;;;;;;;;4.20;95.90;;;;;;5069356;28;19918;-69
2022/12/05 07:45:39;;;;;;;;;;;4.30;96.00;;;;;;5069097;28;19915;-69
2022/12/05 07:48:05;;;;;;;;;;;4.30;96.00;;;;;;5069530;28;20258;-69
2022/12/05 07:50:30;;;;;;;;;;;4.30;96.00;;;;;;5069296;28;19920;-69
2022/12/05 07:52:56;;;;;;;;;;;4.30;95.90;;;;;;5069068;28;19924;-69
2022/12/05 07:55:21;;;;;;;;;;;4.20;95.90;;;;;;5069283;28;19912;-69
2022/12/05 07:57:47;;;;;;;;;;;4.20;95.90;;;;;;5068809;28;19920;-69
2022/12/05 08:00:12;;;;;;;;;;;4.30;95.90;;;;;;5068783;28;20033;-69
2022/12/05 08:02:38;;;;;;;;;;;4.20;95.90;;;;;;5060218;28;20007;-69
2022/12/05 08:05:04;;;;;;;;;;;4.20;95.90;;;;;;5089083;28;19957;-69
2022/12/05 08:07:29;;;;;;;;;;;4.20;95.90;;;;;;5089104;28;19955;-69
2022/12/05 08:09:54;;;;;;;;;;;4.20;95.90;;;;;;5057807;28;19912;-69
2022/12/05 08:12:20;;;;;;;;;;;4.20;95.90;;;;;;5067943;28;20504;-69
2022/12/05 08:14:45;;;;;;;;;;;4.20;95.90;;;;;;5067630;28;19969;-69
2022/12/05 08:17:11;;;;;;;;;;;4.20;95.90;;;;;;5068550;28;19915;-69
2022/12/05 08:19:36;;;;;;;;;;;4.20;95.90;;;;;;5067993;28;19917;-69
2022/12/05 08:22:02;;;;;;;;;;;4.20;95.90;;;;;;5068175;28;19977;-68
2022/12/05 08:24:27;;;;;;;;;;;4.20;95.90;;;;;;5068164;28;19955;-69
2022/12/05 08:26:53;;;;;;;;;;;4.20;95.90;;;;;;5063695;28;19950;-69
2022/12/05 08:29:20;;;;;;;;;;;4.20;95.90;;;;;;5067832;28;20495;-69
2022/12/05 08:31:47;;;;;;;;;;;4.20;95.90;;;;;;5064054;28;19913;-69
2022/12/05 08:34:13;;;;;;;;;;;4.20;95.80;;;;;;5048084;28;20544;-69
2022/12/05 08:36:39;;;;;;;;;;;4.20;95.80;;;;;;5059074;28;19923;-69
2022/12/05 08:39:05;;;;;;;;;;;4.20;95.90;;;;;;5054794;28;20449;-69
2022/12/05 08:41:31;;;;;;;;;;;4.20;95.90;;;;;;5048062;28;20015;-69
2022/12/05 08:43:57;;;;;;;;;;;4.20;95.90;;;;;;5048193;28;19999;-69
2022/12/05 08:46:23;;;;;;;;;;;4.20;95.90;;;;;;5048144;28;20850;-69
2022/12/05 08:48:48;;;;;;;;;;;4.20;95.80;;;;;;5048021;28;19916;-69
2022/12/05 08:51:14;;;;;;;;;;;4.20;95.80;;;;;;5047536;28;20266;-70
2022/12/05 08:53:39;;;;;;;;;;;4.20;95.80;;;;;;5068869;28;19916;-69
2022/12/05 08:56:06;;;;;;;;;;;4.20;95.80;;;;;;5085401;28;19936;-69
2022/12/05 08:58:32;;;;;;;;;;;4.20;95.80;;;;;;5066507;28;19992;-69
2022/12/05 09:01:04;;;;;;;;;;;4.20;95.80;;;;;;5067547;28;19999;-69
2022/12/05 09:03:30;;;;;;;;;;;4.20;95.80;;;;;;5049597;28;19908;-69
2022/12/05 09:06:04;;;;;;;;;;;4.20;95.80;;;;;;5047682;28;19913;-69
2022/12/05 09:08:29;;;;;;;;;;;4.20;95.80;;;;;;5047834;28;19912;-69
2022/12/05 09:10:55;;;;;;;;;;;4.20;95.80;;;;;;5075254;28;19922;-68
2022/12/05 09:13:20;;;;;;;;;;;4.20;95.80;;;;;;5087516;28;19965;-69
2022/12/05 09:15:45;;;;;;;;;;;4.20;95.80;;;;;;5087925;28;20372;-69
2022/12/05 09:18:11;;;;;;;;;;;4.20;95.80;;;;;;5087350;28;19916;-69
2022/12/05 09:20:38;;;;;;;;;;;4.20;95.80;;;;;;5087259;28;20003;-69
2022/12/05 09:23:03;;;;;;;;;;;4.20;95.80;;;;;;5087608;28;19912;-69
2022/12/05 09:25:29;;;;;;;;;;;4.20;95.80;;;;;;5087084;28;20361;-69
2022/12/05 09:27:54;;;;;;;;;;;4.20;95.80;;;;;;5070686;28;20003;-69
2022/12/05 09:30:19;;;;;;;;;;;4.20;95.80;;;;;;5066614;28;19915;-69
2022/12/05 09:32:45;;;;;;;;;;;4.20;95.80;;;;;;5054988;28;19909;-69
2022/12/05 09:35:10;;;;;;;;;;;4.20;95.80;;;;;;5046967;28;19920;-69
2022/12/05 09:37:36;;;;;;;;;;;4.20;95.80;;;;;;5057883;28;19921;-69
2022/12/05 09:40:02;;;;;;;;;;;4.20;95.80;;;;;;5067906;28;19919;-69
2022/12/05 09:42:34;;;;;;;;;;;4.20;95.80;;;;;;5082402;28;20026;-69
2022/12/05 09:45:16;;;;;;;;;;;4.20;95.80;;;;;;5067296;28;19915;-69
2022/12/05 09:47:46;;;;;;;;;;;4.20;95.70;;;;;;5067012;28;19909;-69
2022/12/05 09:50:12;;;;;;;;;;;4.20;95.70;;;;;;5066878;28;20506;-69
2022/12/05 09:52:40;;;;;;;;;;;4.30;95.70;;;;;;5066841;28;19913;-69
2022/12/05 09:55:17;;;;;;;;;;;4.20;95.70;;;;;;5066907;28;20323;-69
2022/12/05 09:57:46;;;;;;;;;;;4.30;95.70;;;;;;5079933;28;20454;-69
2022/12/05 10:00:12;;;;;;;;;;;4.30;95.70;;;;;;5080053;28;19943;-69
2022/12/05 10:02:43;;;;;;;;;;;4.30;95.70;;;;;;5056670;28;19963;-69
2022/12/05 10:05:20;;;;;;;;;;;4.30;95.70;;;;;;5046765;28;19913;-69
2022/12/05 10:07:52;;;;;;;;;;;4.30;95.70;;;;;;5046789;28;19946;-68
2022/12/05 10:10:47;;;;;;;;;;;4.30;95.70;;;;;;5046277;28;20356;-69
2022/12/05 10:13:15;;;;;;;;;;;4.30;95.70;;;;;;5041331;28;19947;-69
2022/12/05 10:15:43;;;;;;;;;;;4.30;96.00;;;;;;5050704;28;19909;-69
2022/12/05 10:18:08;;;;;;;;;;;4.30;95.70;;;;;;5086520;28;19927;-69
2022/12/05 10:20:34;;;;;;;;;;;4.30;95.70;;;;;;5086438;28;19912;-69
2022/12/05 10:23:02;;;;;;;;;;;4.30;95.70;;;;;;5087098;28;19957;-69
2022/12/05 10:25:30;;;;;;;;;;;4.30;95.70;;;;;;5064691;28;19919;-69
2022/12/05 10:27:58;;;;;;;;;;;4.30;95.70;;;;;;5064465;28;20007;-69
2022/12/05 10:30:26;;;;;;;;;;;4.30;95.70;;;;;;5066358;28;19913;-69
2022/12/05 10:32:52;;;;;;;;;;;4.30;95.70;;;;;;5061993;28;19909;-69
2022/12/05 10:35:31;;;;;;;;;;;4.30;95.70;;;;;;5066726;28;20424;-69
2022/12/05 10:37:59;;;;;;;;;;;4.30;95.70;;;;;;5064010;28;19943;-69
2022/12/05 10:40:45;;;;;;;;;;;4.30;95.70;;;;;;5050188;28;19915;-69
2022/12/05 10:43:13;;;;;;;;;;;4.30;95.70;;;;;;5048417;28;19909;-69
2022/12/05 10:45:43;;;;;;;;;;;4.40;95.70;;;;;;5049926;28;19995;-69
2022/12/05 10:48:10;;;;;;;;;;;4.30;95.70;;;;;;5050088;28;20020;-69
2022/12/05 10:50:36;;;;;;;;;;;4.30;95.60;;;;;;5083132;28;20035;-69
2022/12/05 10:53:02;;;;;;;;;;;4.40;95.70;;;;;;5082382;28;20433;-69
2022/12/05 10:55:41;;;;;;;;;;;4.30;95.60;;;;;;5050185;28;19913;-69
2022/12/05 10:58:14;;;;;;;;;;;4.40;95.70;;;;;;5067585;28;19916;-69
2022/12/05 11:00:45;;;;;;;;;;;4.40;95.70;;;;;;5066249;28;19915;-69
2022/12/05 11:03:19;;;;;;;;;;;4.40;95.70;;;;;;5064066;28;19969;-69
2022/12/05 11:05:48;;;;;;;;;;;4.40;95.70;;;;;;5062903;28;19912;-70
2022/12/05 11:08:20;;;;;;;;;;;4.40;95.70;;;;;;5083910;28;19966;-69
2022/12/05 11:10:46;;;;;;;;;;;4.40;95.70;;;;;;5069364;28;20006;-69
2022/12/05 11:13:16;;;;;;;;;;;4.40;95.70;;;;;;5068712;28;20022;-70
2022/12/05 11:15:46;;;;;;;;;;;4.40;95.70;;;;;;5069868;28;19999;-70
2022/12/05 11:18:31;;;;;;;;;;;4.40;95.70;;;;;;5069900;28;19958;-69
2022/12/05 11:21:18;;;;;;;;;;;4.40;95.70;;;;;;5069546;28;19913;-69
2022/12/05 11:23:43;;;;;;;;;;;4.40;95.70;;;;;;5083372;28;19916;-69
2022/12/05 11:26:33;;;;;;;;;;;4.40;95.70;;;;;;5086848;28;19915;-69
2022/12/05 11:28:58;;;;;;;;;;;4.40;95.70;;;;;;5069678;28;20057;-70
2022/12/05 11:31:28;;;;;;;;;;;4.40;95.70;;;;;;5068447;28;19995;-70
2022/12/05 11:34:20;;;;;;;;;;;4.30;95.70;;;;;;5050013;28;19913;-70
2022/12/05 11:36:49;;;;;;;;;;;4.30;95.70;;;;;;5056649;28;19913;-70
2022/12/05 11:39:15;;;;;;;;;;;4.40;95.70;;;;;;5059187;28;19920;-70
2022/12/05 11:41:40;;;;;;;;;;;4.40;95.70;;;;;;5069024;28;19912;-70
2022/12/05 11:44:06;;;;;;;;;;;4.40;95.70;;;;;;5069415;28;20010;-70
2022/12/05 11:46:37;;;;;;;;;;;4.30;95.70;;;;;;5068912;28;20480;-70
2022/12/05 11:49:18;;;;;;;;;;;4.30;95.70;;;;;;5067501;28;19921;-70
2022/12/05 11:51:46;;;;;;;;;;;4.30;95.70;;;;;;5069039;28;19939;-70
2022/12/05 11:54:21;;;;;;;;;;;4.30;95.70;;;;;;5069104;28;19912;-70
2022/12/05 11:56:58;;;;;;;;;;;4.30;95.70;;;;;;5071953;28;20551;-70
2022/12/05 11:59:23;;;;;;;;;;;4.30;95.70;;;;;;5068707;28;19916;-70
2022/12/05 12:01:50;;;;;;;;;;;4.30;95.70;;;;;;5066120;28;19909;-70
2022/12/05 12:04:28;;;;;;;;;;;4.30;95.70;;;;;;5068819;28;19919;-70
2022/12/05 12:07:09;;;;;;;;;;;4.30;95.70;;;;;;5067505;28;20007;-70
2022/12/05 12:09:59;;;;;;;;;;;4.30;95.80;;;;;;5051468;28;19987;-70
2022/12/05 12:12:27;;;;;;;;;;;4.30;95.80;;;;;;5058195;28;19923;-70
2022/12/05 12:15:00;;;;;;;;;;;4.30;95.80;;;;;;5068691;28;19920;-70
2022/12/05 12:17:32;;;;;;;;;;;4.30;95.80;;;;;;5068378;28;19913;-70
2022/12/05 12:20:01;;;;;;;;;;;4.30;95.80;;;;;;5068464;28;19920;-70
2022/12/05 12:22:26;;;;;;;;;;;4.30;95.70;;;;;;5068341;28;19927;-70
2022/12/05 12:25:11;;;;;;;;;;;4.30;95.70;;;;;;5068283;28;19912;-70
2022/12/05 12:27:45;;;;;;;;;;;4.30;95.80;;;;;;5067107;28;19932;-70
2022/12/05 12:30:14;;;;;;;;;;;4.30;95.70;;;;;;5081500;28;19920;-71
2022/12/05 12:32:46;;;;;;;;;;;4.30;95.70;;;;;;5065512;28;19913;-70
2022/12/05 12:35:14;;;;;;;;;;;4.30;95.70;;;;;;5048355;28;19913;-70
2022/12/05 12:37:58;;;;;;;;;;;4.30;95.70;;;;;;5059965;28;19947;-70
2022/12/05 12:40:34;;;;;;;;;;;4.30;95.70;;;;;;5068144;28;19908;-69
2022/12/05 12:43:11;;;;;;;;;;;4.20;95.70;;;;;;5068117;28;19913;-70
2022/12/05 12:45:55;;;;;;;;;;;4.30;95.80;;;;;;5076347;28;19912;-70
2022/12/05 12:48:20;;;;;;;;;;;4.30;95.70;;;;;;5088396;28;19919;-70
2022/12/05 12:50:49;;;;;;;;;;;4.20;95.70;;;;;;5086500;28;19912;-70
2022/12/05 12:53:14;;;;;;;;;;;4.20;95.70;;;;;;5088261;28;19912;-69
2022/12/05 12:55:46;;;;;;;;;;;4.20;95.70;;;;;;5088022;28;19908;-70
2022/12/05 12:58:30;;;;;;;;;;;4.30;95.80;;;;;;5047579;28;19917;-70
2022/12/05 13:01:01;;;;;;;;;;;4.20;95.70;;;;;;5059148;28;20382;-70
2022/12/05 13:03:39;;;;;;;;;;;4.20;95.70;;;;;;5082946;28;19912;-70
2022/12/05 13:06:12;;;;;;;;;;;4.20;95.70;;;;;;5067972;28;19963;-70
2022/12/05 13:08:43;;;;;;;;;;;4.20;95.70;;;;;;5058364;28;19912;-70
2022/12/05 13:11:11;;;;;;;;;;;4.20;95.70;;;;;;5079548;28;19920;-70
2022/12/05 13:13:42;;;;;;;;;;;4.20;95.80;;;;;;5046538;28;20254;-70
2022/12/05 13:16:10;;;;;;;;;;;4.20;95.70;;;;;;5047149;28;20441;-70
2022/12/05 13:18:36;;;;;;;;;;;4.20;95.70;;;;;;5055124;28;20392;-71
2022/12/05 13:21:05;;;;;;;;;;;4.20;95.70;;;;;;5067032;28;19923;-71
2022/12/05 13:23:33;;;;;;;;;;;4.20;95.80;;;;;;5067581;28;20623;-71
2022/12/05 13:25:59;;;;;;;;;;;4.20;95.80;;;;;;5066496;28;19965;-70
2022/12/05 13:28:29;;;;;;;;;;;4.20;95.80;;;;;;5067026;28;19916;-70
2022/12/05 13:31:03;;;;;;;;;;;4.20;95.80;;;;;;5066515;28;19919;-70
2022/12/05 13:33:34;;;;;;;;;;;4.20;95.80;;;;;;5067256;28;19919;-70
2022/12/05 13:44:32;;;;;;;;;;;4.20;95.80;;;;;;5047091;28;20037;-70
2022/12/05 13:46:58;;;;;;;;;;;4.20;95.80;;;;;;5047140;28;20699;-70
2022/12/05 13:49:38;;;;;;;;;;;4.20;95.80;;;;;;5065585;28;19920;-70
2022/12/05 13:52:21;;;;;;;;;;;4.20;95.80;;;;;;5068211;28;19970;-70
2022/12/05 13:54:51;;;;;;;;;;;4.20;95.80;;;;;;5067302;28;19962;-70
2022/12/05 13:57:44;;;;;;;;;;;4.20;95.80;;;;;;5067173;28;19913;-69
2022/12/05 14:00:09;;;;;;;;;;;4.20;95.80;;;;;;5062640;28;19923;-70
2022/12/05 14:02:44;;;;;;;;;;;4.20;95.80;;;;;;5065653;28;19909;-70
2022/12/05 14:05:13;;;;;;;;;;;4.10;95.80;;;;;;5066971;28;19966;-70
2022/12/05 14:07:39;;;;;;;;;;;4.10;95.80;;;;;;5065660;28;19913;-70
2022/12/05 14:10:05;;;;;;;;;;;4.10;95.80;;;;;;5066830;28;19912;-70
2022/12/05 14:12:44;;;;;;;;;;;4.20;95.80;;;;;;5066896;28;19978;-70
2022/12/05 14:15:45;;;;;;;;;;;4.10;95.80;;;;;;5071453;28;19908;-70
2022/12/05 14:18:20;;;;;;;;;;;4.10;95.80;;;;;;5070704;28;20304;-70
2022/12/05 14:20:47;;;;;;;;;;;4.20;95.80;;;;;;5053914;28;19919;-70
2022/12/05 14:23:25;;;;;;;;;;;4.10;95.80;;;;;;5051075;28;19913;-70
2022/12/05 14:26:00;;;;;;;;;;;4.10;95.80;;;;;;5070483;28;19912;-70
2022/12/05 14:28:34;;;;;;;;;;;4.10;95.80;;;;;;5070772;28;19908;-70
2022/12/05 14:31:12;;;;;;;;;;;4.10;95.80;;;;;;5070468;28;20357;-70
2022/12/05 14:33:37;;;;;;;;;;;4.10;95.80;;;;;;5051634;28;20505;-70
2022/12/05 14:36:05;;;;;;;;;;;4.10;95.80;;;;;;5050596;28;19913;-70
2022/12/05 14:38:31;;;;;;;;;;;4.10;95.80;;;;;;5069221;28;20075;-70
2022/12/05 14:41:10;;;;;;;;;;;4.10;96.10;;;;;;5070521;28;19920;-70
2022/12/05 14:43:36;;;;;;;;;;;4.10;95.80;;;;;;5071285;28;20015;-71
2022/12/05 14:46:06;;;;;;;;;;;4.10;95.80;;;;;;5070305;28;19908;-71
2022/12/05 14:48:34;;;;;;;;;;;4.10;95.80;;;;;;5070458;28;19909;-71
2022/12/05 14:51:00;;;;;;;;;;;4.10;95.80;;;;;;5070047;28;19912;-71
2022/12/05 14:53:26;;;;;;;;;;;4.10;95.80;;;;;;5070305;28;20683;-71
2022/12/05 14:56:00;;;;;;;;;;;4.10;95.80;;;;;;5069776;28;19982;-71